Time;durP1;ratioP1;P1;durP2;ratioP2;P2;SDS_P1;SDS_P2;PMS_P1;PMS_P2;Temp;Humidity;BMP_temperature;BMP_pressure;BME280_temperature;BME280_humidity;BME280_pressure;Samples;Min_cycle;Max_cycle;Signal;HPM_P1;HPM_P2
2022/05/25 00:00:26;;;;;;;0.68;0.50;;;;;;;10.23;100.00;92778.56;2106706;27;20446;-83
2022/05/25 00:01:27;;;;;;;1.38;0.50;;;;;;;10.22;100.00;92777.78;2105689;28;20630;-83
2022/05/25 00:02:28;;;;;;;1.67;0.52;;;;;;;10.23;100.00;92783.91;2089950;28;20024;-83
2022/05/25 00:03:32;;;;;;;0.95;0.63;;;;;;;10.26;100.00;92783.81;2081800;28;20055;-83
2022/05/25 00:04:33;;;;;;;1.75;0.65;;;;;;;10.28;100.00;92786.84;2098907;28;20039;-83
2022/05/25 00:05:35;;;;;;;1.05;0.77;;;;;;;10.28;100.00;92791.44;2098207;28;20067;-83
2022/05/25 00:06:36;;;;;;;4.68;0.68;;;;;;;10.39;100.00;92781.22;2098296;28;20383;-83
2022/05/25 00:07:37;;;;;;;2.10;0.50;;;;;;;10.32;100.00;92787.50;2106643;28;20031;-83
2022/05/25 00:08:40;;;;;;;2.08;0.50;;;;;;;10.38;100.00;92792.31;2105681;28;20028;-83
2022/05/25 00:09:42;;;;;;;0.88;0.60;;;;;;;10.15;100.00;92794.03;2098582;28;20029;-83
2022/05/25 00:10:43;;;;;;;1.08;0.50;;;;;;;10.00;100.00;92788.28;2102003;28;20117;-84
2022/05/25 00:11:47;;;;;;;0.63;0.60;;;;;;;9.98;100.00;92787.94;2114988;28;20483;-83
2022/05/25 00:12:49;;;;;;;1.38;0.73;;;;;;;9.99;100.00;92791.38;2106181;28;20028;-83
2022/05/25 00:13:51;;;;;;;1.33;0.60;;;;;;;10.07;100.00;92787.34;2098297;28;20071;-83
2022/05/25 00:14:53;;;;;;;2.47;0.50;;;;;;;9.91;100.00;92793.47;2098373;28;20021;-83
2022/05/25 00:15:54;;;;;;;1.75;0.68;;;;;;;9.84;100.00;92788.31;2090034;28;20029;-83
2022/05/25 00:16:56;;;;;;;0.73;0.45;;;;;;;9.87;100.00;92786.69;2098015;28;20139;-83
2022/05/25 00:17:57;;;;;;;0.68;0.60;;;;;;;9.89;100.00;92789.72;2089950;28;20116;-83
2022/05/25 00:20:18;;;;;;;0.60;0.60;;;;;;;9.78;100.00;92789.97;2094652;28;20025;-83
2022/05/25 00:21:19;;;;;;;1.88;0.80;;;;;;;9.70;100.00;92794.75;2098056;28;20032;-83
2022/05/25 00:22:20;;;;;;;2.40;0.65;;;;;;;9.76;100.00;92798.41;2106146;28;20028;-83
2022/05/25 00:23:21;;;;;;;0.60;0.57;;;;;;;9.76;100.00;92793.06;2105970;28;20016;-83
2022/05/25 00:24:22;;;;;;;1.02;0.68;;;;;;;9.79;100.00;92797.56;2098043;28;20107;-83
2022/05/25 00:25:29;;;;;;;2.67;0.60;;;;;;;9.69;100.00;92801.22;2098063;28;20074;-83
2022/05/25 00:26:33;;;;;;;1.83;0.60;;;;;;;9.69;100.00;92797.81;2098681;28;20627;-83
2022/05/25 00:27:34;;;;;;;1.05;0.60;;;;;;;9.71;100.00;92795.50;2090736;28;20055;-83
2022/05/25 00:28:35;;;;;;;1.30;0.65;;;;;;;9.70;100.00;92791.28;2106529;28;20024;-83
2022/05/25 00:29:39;;;;;;;1.95;0.85;;;;;;;9.61;100.00;92797.22;2114873;28;20098;-83
2022/05/25 00:30:43;;;;;;;0.60;0.55;;;;;;;9.68;100.00;92805.06;2090541;28;20109;-83
2022/05/25 00:31:44;;;;;;;0.85;0.60;;;;;;;9.70;100.00;92800.06;2093276;28;20056;-82
2022/05/25 00:32:55;;;;;;;1.42;0.70;;;;;;;9.67;100.00;92797.50;2098006;28;20020;-82
2022/05/25 00:33:55;;;;;;;;;;;;;;;9.76;100.00;92803.75;2091421;28;20029;-83
2022/05/25 00:34:56;;;;;;;1.90;0.63;;;;;;;9.66;100.00;92801.31;2089796;28;19913;-83
2022/05/25 00:35:57;;;;;;;1.50;0.52;;;;;;;9.59;100.00;92805.66;2097804;28;20048;-83
2022/05/25 00:36:59;;;;;;;1.38;0.60;;;;;;;9.53;100.00;92802.00;2097882;28;20358;-83
2022/05/25 00:38:00;;;;;;;0.70;0.70;;;;;;;9.64;100.00;92800.97;2095600;28;20439;-83
2022/05/25 00:39:00;;;;;;;1.25;0.60;;;;;;;9.66;100.00;92809.31;2097920;28;20036;-83
2022/05/25 00:40:04;;;;;;;0.93;0.60;;;;;;;9.46;100.00;92801.38;2097933;28;20028;-83
2022/05/25 00:41:05;;;;;;;2.08;0.70;;;;;;;9.50;100.00;92802.06;2089985;28;20032;-83
2022/05/25 00:42:08;;;;;;;1.15;0.70;;;;;;;9.46;100.00;92801.38;2096829;28;20016;-83
2022/05/25 00:43:11;;;;;;;1.80;0.70;;;;;;;9.53;100.00;92801.25;2098195;28;20115;-82
2022/05/25 00:44:12;;;;;;;0.85;0.70;;;;;;;9.49;100.00;92803.97;2090362;28;20024;-82
2022/05/25 00:45:16;;;;;;;0.43;0.43;;;;;;;9.48;100.00;92813.16;2089690;28;20571;-83
2022/05/25 00:46:20;;;;;;;1.15;0.82;;;;;;;9.56;100.00;92808.41;2090323;28;20036;-83
2022/05/25 00:47:26;;;;;;;1.27;0.93;;;;;;;9.57;100.00;92812.59;2099193;28;20020;-82
2022/05/25 00:48:37;;;;;;;3.25;0.80;;;;;;;9.52;100.00;92805.81;2098515;28;20052;-83
2022/05/25 00:49:38;;;;;;;2.55;0.80;;;;;;;9.50;100.00;92804.72;2107590;28;20385;-83
2022/05/25 00:51:24;;;;;;;2.47;0.77;;;;;;;9.57;100.00;92804.59;2106149;28;20107;-83
2022/05/25 00:52:08;;;;;;;2.05;1.02;;;;;;;9.42;100.00;92806.81;2098501;28;20031;-83
2022/05/25 00:53:22;;;;;;;3.38;0.95;;;;;;;9.54;100.00;92811.50;2106343;28;20542;-83
2022/05/25 00:54:34;;;;;;;1.15;0.70;;;;;;;9.52;100.00;92808.47;2099559;28;20028;-82
2022/05/25 00:55:35;;;;;;;1.95;0.85;;;;;;;9.58;100.00;92809.50;2091090;28;20020;-82
2022/05/25 00:56:42;;;;;;;1.95;0.90;;;;;;;9.54;100.00;92814.16;2089468;28;20025;-83
2022/05/25 00:57:46;;;;;;;2.13;0.80;;;;;;;9.59;100.00;92812.91;2098632;28;20036;-83
2022/05/25 00:58:53;;;;;;;1.42;0.80;;;;;;;9.56;100.00;92813.72;2094939;28;20030;-83
2022/05/25 01:00:09;;;;;;;2.38;0.90;;;;;;;9.76;100.00;92813.66;2098756;28;20016;-83
2022/05/25 01:01:10;;;;;;;2.38;0.60;;;;;;;9.78;100.00;92817.41;2102218;28;20543;-83
2022/05/25 01:02:11;;;;;;;1.05;0.60;;;;;;;9.67;100.00;92818.84;2099146;28;20054;-83
2022/05/25 01:03:13;;;;;;;0.70;0.50;;;;;;;9.64;100.00;92820.41;2089608;28;20477;-83
2022/05/25 01:04:15;;;;;;;3.20;0.75;;;;;;;9.66;100.00;92823.44;2090001;28;20017;-84
2022/05/25 01:05:21;;;;;;;1.60;0.60;;;;;;;9.75;100.00;92815.59;2089546;28;20020;-83
2022/05/25 01:06:51;;;;;;;1.02;0.60;;;;;;;9.80;100.00;92825.00;2082527;28;20025;-84
2022/05/25 01:08:00;;;;;;;2.30;0.80;;;;;;;9.63;100.00;92826.16;2087924;28;20128;-83
2022/05/25 01:09:20;;;;;;;0.90;0.70;;;;;;;9.48;100.00;92813.16;2097790;28;20064;-83
2022/05/25 01:10:32;;;;;;;2.35;0.70;;;;;;;9.38;100.00;92814.13;2086270;28;20120;-83
2022/05/25 01:12:02;;;;;;;2.10;0.80;;;;;;;9.30;100.00;92812.78;2107675;27;20030;-84
2022/05/25 01:13:11;;;;;;;3.10;0.75;;;;;;;9.36;100.00;92813.06;2105385;28;20076;-84
2022/05/25 01:14:26;;;;;;;0.68;0.65;;;;;;;9.42;100.00;92814.06;2091254;28;20033;-83
2022/05/25 01:15:32;;;;;;;0.55;0.50;;;;;;;9.30;100.00;92815.44;2093148;28;20436;-83
2022/05/25 01:16:45;;;;;;;1.17;0.70;;;;;;;9.30;100.00;92812.78;2090798;28;20060;-83
2022/05/25 01:18:32;;;;;;;2.03;0.70;;;;;;;9.28;100.00;92817.78;2099375;28;20027;-83
2022/05/25 01:19:39;;;;;;;1.63;0.68;;;;;;;9.30;100.00;92820.78;2072041;28;20442;-83
2022/05/25 01:20:59;;;;;;;0.75;0.73;;;;;;;9.34;100.00;92808.13;2091104;28;20047;-83
2022/05/25 01:22:10;;;;;;;1.67;0.70;;;;;;;9.42;100.00;92812.13;2096768;28;20169;-83
2022/05/25 01:23:22;;;;;;;1.90;0.80;;;;;;;9.48;100.00;92813.16;2098785;28;20032;-83
2022/05/25 01:24:45;;;;;;;1.23;0.77;;;;;;;9.61;100.00;92815.91;2092371;28;20119;-83
2022/05/25 01:25:52;;;;;;;2.10;0.80;;;;;;;9.59;100.00;92819.00;2109219;28;20422;-83
2022/05/25 01:27:06;;;;;;;1.98;0.75;;;;;;;9.55;100.00;92814.91;2114133;28;20485;-83
2022/05/25 01:28:36;;;;;;;2.25;0.80;;;;;;;9.55;100.00;92826.31;2111798;28;20488;-83
2022/05/25 01:30:00;;;;;;;2.70;0.80;;;;;;;9.50;100.00;92826.06;2113170;28;20534;-83
2022/05/25 01:31:07;;;;;;;2.15;0.77;;;;;;;9.52;100.00;92821.81;2102769;28;20040;-83
2022/05/25 01:32:29;;;;;;;0.70;0.70;;;;;;;9.58;100.00;92822.09;2106894;28;20027;-83
2022/05/25 01:33:41;;;;;;;1.05;0.60;;;;;;;9.62;100.00;92827.34;2110735;28;20027;-83
2022/05/25 01:35:20;;;;;;;2.75;0.70;;;;;;;9.51;100.00;92830.25;2105762;28;20038;-83
2022/05/25 01:36:38;;;;;;;4.38;1.27;;;;;;;9.39;100.00;92828.22;2098344;28;20040;-83
2022/05/25 01:38:14;;;;;;;1.55;0.70;;;;;;;9.41;100.00;92834.66;2102312;28;20036;-82
2022/05/25 01:39:22;;;;;;;1.15;0.80;;;;;;;9.37;100.00;92822.56;2109338;28;20084;-83
2022/05/25 01:40:36;;;;;;;1.90;0.90;;;;;;;9.25;100.00;92826.59;2114323;28;20140;-84
2022/05/25 01:41:56;;;;;;;3.28;0.80;;;;;;;9.33;100.00;92833.31;2105787;28;20097;-83
2022/05/25 01:43:23;;;;;;;3.35;1.05;;;;;;;9.27;100.00;92818.97;2094402;28;20029;-83
2022/05/25 01:44:31;;;;;;;0.75;0.70;;;;;;;9.23;100.00;92827.03;2092732;28;20024;-83
2022/05/25 01:45:37;;;;;;;1.70;0.95;;;;;;;9.24;100.00;92830.44;2091244;28;20027;-83
2022/05/25 01:46:42;;;;;;;0.82;0.70;;;;;;;9.44;100.00;92828.50;2106408;28;20034;-83
2022/05/25 01:47:48;;;;;;;0.95;0.60;;;;;;;9.42;100.00;92828.13;2105688;28;20032;-83
2022/05/25 01:48:51;;;;;;;2.65;0.80;;;;;;;9.41;100.00;92834.66;2082550;28;20115;-82
2022/05/25 01:50:09;;;;;;;1.10;0.77;;;;;;;9.46;100.00;92828.81;2106650;27;20469;-83
2022/05/25 01:51:16;;;;;;;1.75;0.70;;;;;;;9.50;100.00;92831.41;2109203;28;20019;-83
2022/05/25 01:52:24;;;;;;;1.17;1.00;;;;;;;9.61;100.00;92833.81;2103004;28;20431;-83
2022/05/25 01:53:31;;;;;;;1.17;0.80;;;;;;;9.42;100.00;92832.72;2098336;28;20393;-83
2022/05/25 01:54:35;;;;;;;1.05;0.70;;;;;;;9.21;100.00;92826.69;2106554;28;20027;-83
2022/05/25 01:55:47;;;;;;;1.17;0.77;;;;;;;9.18;100.00;92832.84;2106108;28;20024;-83
2022/05/25 01:56:54;;;;;;;1.85;0.80;;;;;;;9.16;100.00;92827.19;2098891;28;20016;-82
2022/05/25 01:58:00;;;;;;;1.85;0.98;;;;;;;9.10;100.00;92828.09;2090796;28;20370;-83
2022/05/25 01:59:05;;;;;;;0.80;0.80;;;;;;;9.18;100.00;92832.84;2106578;28;20040;-83
2022/05/25 02:00:07;;;;;;;1.40;0.63;;;;;;;9.13;100.00;92833.34;2114071;28;20628;-83
2022/05/25 02:01:10;;;;;;;4.10;0.80;;;;;;;9.13;100.00;92832.56;2097341;28;20028;-83
2022/05/25 02:04:55;;;;;;;0.93;0.68;;;;;;;9.11;100.00;92837.59;2113723;28;20028;-83
2022/05/25 02:06:20;;;;;;;4.55;0.85;;;;;;;9.12;100.00;92833.75;2105616;28;20026;-82
2022/05/25 02:07:48;;;;;;;1.65;0.80;;;;;;;9.11;100.00;92834.91;2097355;28;20388;-83
2022/05/25 02:09:14;;;;;;;0.73;0.70;;;;;;;9.05;100.00;92830.06;2093018;28;20111;-82
2022/05/25 02:10:49;;;;;;;1.42;0.70;;;;;;;9.03;100.00;92832.38;2095873;28;20036;-83
2022/05/25 02:12:25;;;;;;;1.85;0.80;;;;;;;9.01;100.00;92826.72;2093548;28;20027;-82
2022/05/25 02:14:07;;;;;;;2.22;0.80;;;;;;;9.03;100.00;92824.38;2098356;28;20499;-83
2022/05/25 02:15:37;;;;;;;2.03;1.10;;;;;;;9.07;100.00;92826.97;2063891;28;20034;-83
2022/05/25 02:17:05;;;;;;;3.35;0.85;;;;;;;9.16;100.00;92829.09;2053946;28;20502;-82
2022/05/25 02:18:15;;;;;;;4.20;0.70;;;;;;;9.14;100.00;92823.44;2075974;28;20059;-82
2022/05/25 02:19:49;;;;;;;2.45;1.00;;;;;;;9.06;100.00;92830.81;2064101;28;20506;-82
2022/05/25 02:20:56;;;;;;;3.38;1.30;;;;;;;9.02;100.00;92828.22;2069293;28;20663;-83
2022/05/25 02:22:04;;;;;;;1.02;0.82;;;;;;;9.04;100.00;92825.91;2082596;28;20029;-83
2022/05/25 02:23:35;;;;;;;1.38;0.75;;;;;;;8.97;100.00;92828.72;2091029;28;20028;-83
2022/05/25 02:24:50;;;;;;;4.43;1.13;;;;;;;8.83;100.00;92829.00;2097056;28;20028;-82
2022/05/25 02:26:02;;;;;;;1.75;1.10;;;;;;;8.99;100.00;92831.72;2092903;28;20513;-82
2022/05/25 02:27:12;;;;;;;3.78;1.30;;;;;;;9.01;100.00;92834.72;2101394;28;20032;-82
2022/05/25 02:28:24;;;;;;;2.25;1.30;;;;;;;8.97;100.00;92831.38;2106922;28;20476;-82
2022/05/25 02:29:33;;;;;;;1.17;1.08;;;;;;;8.87;100.00;92827.03;2098579;28;20844;-83
2022/05/25 02:30:37;;;;;;;3.15;1.10;;;;;;;8.90;100.00;92834.19;2107000;28;20470;-83
2022/05/25 02:32:00;;;;;;;2.70;1.05;;;;;;;8.89;100.00;92837.25;2112028;28;20069;-83
2022/05/25 02:33:13;;;;;;;2.15;0.85;;;;;;;8.85;100.00;92840.00;2097138;28;20484;-83
2022/05/25 02:34:16;;;;;;;1.48;0.90;;;;;;;8.71;100.00;92833.03;2103042;28;20038;-82
2022/05/25 02:35:19;;;;;;;1.17;0.90;;;;;;;8.81;100.00;92840.06;2105727;28;20078;-83
2022/05/25 02:36:20;;;;;;;1.10;1.00;;;;;;;8.81;100.00;92831.31;2114078;28;20075;-83
2022/05/25 02:37:31;;;;;;;2.10;0.90;;;;;;;8.90;100.00;92841.44;2105615;28;20017;-83
2022/05/25 02:38:37;;;;;;;0.95;0.90;;;;;;;8.91;100.00;92842.91;2099989;28;20442;-83
2022/05/25 02:39:38;;;;;;;3.55;0.90;;;;;;;9.02;100.00;92836.22;2106299;28;20081;-83
2022/05/25 02:40:40;;;;;;;1.40;0.93;;;;;;;9.14;100.00;92839.44;2105516;28;20047;-82
2022/05/25 02:41:47;;;;;;;3.15;1.63;;;;;;;9.02;100.00;92844.22;2113889;28;20023;-83
2022/05/25 02:42:48;;;;;;;2.55;1.10;;;;;;;8.91;100.00;92837.59;2098030;28;20021;-83
2022/05/25 02:43:49;;;;;;;4.97;1.10;;;;;;;8.80;100.00;92835.16;2089457;28;20032;-82
2022/05/25 02:44:51;;;;;;;1.42;0.90;;;;;;;8.79;100.00;92841.66;2088872;28;20024;-82
2022/05/25 02:45:51;;;;;;;2.85;1.05;;;;;;;8.76;100.00;92837.88;2097066;28;20027;-82
2022/05/25 02:46:53;;;;;;;1.00;0.90;;;;;;;8.73;100.00;92846.69;2105320;28;20035;-83
2022/05/25 02:47:54;;;;;;;3.13;1.05;;;;;;;8.77;100.00;92838.63;2098487;28;20103;-83
2022/05/25 02:48:55;;;;;;;1.15;1.05;;;;;;;8.66;100.00;92835.44;2090357;28;20021;-82
2022/05/25 02:49:56;;;;;;;1.35;0.90;;;;;;;8.77;100.00;92843.97;2105684;28;20035;-83
2022/05/25 02:50:57;;;;;;;2.38;1.20;;;;;;;8.78;100.00;92838.22;2113840;28;20096;-83
2022/05/25 02:51:58;;;;;;;1.83;1.08;;;;;;;8.83;100.00;92840.41;2105353;28;20081;-83
2022/05/25 02:52:59;;;;;;;2.58;0.90;;;;;;;8.93;100.00;92840.63;2088995;28;20032;-83
2022/05/25 02:54:00;;;;;;;2.13;1.02;;;;;;;9.13;100.00;92827.25;2105392;28;20031;-82
2022/05/25 02:55:01;;;;;;;1.90;0.90;;;;;;;9.20;100.00;92843.09;2105363;28;20162;-82
2022/05/25 02:56:03;;;;;;;5.47;1.10;;;;;;;9.25;100.00;92840.69;2088723;28;20024;-83
2022/05/25 02:57:05;;;;;;;1.88;0.90;;;;;;;9.47;100.00;92840.97;2089210;28;20031;-83
2022/05/25 02:58:18;;;;;;;1.77;0.90;;;;;;;9.15;100.00;92846.25;2097419;28;20135;-82
2022/05/25 02:59:19;;;;;;;3.60;1.55;;;;;;;9.03;100.00;92853.72;2100451;28;20032;-82
2022/05/25 03:00:20;;;;;;;2.22;0.98;;;;;;;8.97;100.00;92854.63;2101936;28;20500;-83
2022/05/25 03:01:21;;;;;;;3.92;0.93;;;;;;;8.84;100.00;92846.50;2100265;28;20138;-82
2022/05/25 03:02:22;;;;;;;4.65;0.80;;;;;;;8.84;100.00;92846.50;2097183;28;20480;-83
2022/05/25 03:03:23;;;;;;;1.77;0.80;;;;;;;8.76;100.00;92850.44;2088972;28;20102;-83
2022/05/25 03:04:24;;;;;;;2.05;0.95;;;;;;;8.66;100.00;92843.41;2097120;28;20023;-83
2022/05/25 03:05:26;;;;;;;3.03;1.20;;;;;;;8.64;100.00;92849.16;2097105;28;20848;-82
2022/05/25 03:06:27;;;;;;;1.88;1.08;;;;;;;8.62;100.00;92843.47;2094665;28;20045;-83
2022/05/25 03:07:28;;;;;;;1.88;0.90;;;;;;;8.68;100.00;92849.09;2097043;28;20017;-82
2022/05/25 03:08:30;;;;;;;3.63;1.10;;;;;;;8.66;100.00;92846.09;2103349;28;20796;-82
2022/05/25 03:09:31;;;;;;;1.50;1.00;;;;;;;8.67;100.00;92852.91;2097266;28;20111;-83
2022/05/25 03:10:32;;;;;;;1.75;0.90;;;;;;;8.64;100.00;92851.81;2097116;28;20473;-82
2022/05/25 03:11:33;;;;;;;3.25;0.95;;;;;;;8.65;100.00;92856.00;2097235;28;20028;-82
2022/05/25 03:12:34;;;;;;;1.80;0.90;;;;;;;8.65;100.00;92845.34;2097141;28;20465;-82
2022/05/25 03:13:35;;;;;;;2.67;0.80;;;;;;;8.69;100.00;92854.03;2088721;28;20045;-83
2022/05/25 03:14:37;;;;;;;2.78;0.90;;;;;;;8.71;100.00;92856.25;2097108;28;20063;-82
2022/05/25 03:15:38;;;;;;;0.60;0.60;;;;;;;8.69;100.00;92861.22;2097016;28;20123;-82
2022/05/25 03:16:42;;;;;;;1.83;0.82;;;;;;;8.66;100.00;92854.81;2105750;28;20512;-82
2022/05/25 03:17:43;;;;;;;2.60;0.90;;;;;;;8.79;100.00;92858.38;2107329;28;20024;-82
2022/05/25 03:18:47;;;;;;;2.60;0.70;;;;;;;8.71;100.00;92864.25;2098547;28;20024;-82
2022/05/25 03:19:53;;;;;;;2.00;1.17;;;;;;;8.77;100.00;92863.34;2091122;28;20021;-82
2022/05/25 03:20:54;;;;;;;2.08;0.98;;;;;;;8.77;100.00;92865.28;2091613;28;20025;-82
2022/05/25 03:21:55;;;;;;;1.17;0.85;;;;;;;8.80;100.00;92870.53;2090349;28;20025;-82
2022/05/25 03:22:56;;;;;;;0.73;0.60;;;;;;;8.83;100.00;92874.31;2098572;28;20066;-82
2022/05/25 03:23:57;;;;;;;1.95;0.90;;;;;;;8.81;100.00;92872.03;2098586;28;20023;-83
2022/05/25 03:24:59;;;;;;;1.38;0.80;;;;;;;8.82;100.00;92870.13;2090207;28;20450;-83
2022/05/25 03:26:00;;;;;;;2.95;0.93;;;;;;;8.91;100.00;92874.91;2096493;28;20032;-82
2022/05/25 03:27:02;;;;;;;2.03;0.77;;;;;;;8.86;100.00;92875.38;2106832;28;20028;-82
2022/05/25 03:28:05;;;;;;;1.17;0.90;;;;;;;8.77;100.00;92876.69;2106911;28;20024;-83
2022/05/25 03:29:07;;;;;;;1.63;0.90;;;;;;;8.75;100.00;92880.94;2093620;28;20115;-83
2022/05/25 03:30:09;;;;;;;2.78;0.90;;;;;;;8.77;100.00;92883.94;2095514;28;20452;-83
2022/05/25 03:31:11;;;;;;;1.33;0.82;;;;;;;8.71;100.00;92877.59;2090434;28;20029;-83
2022/05/25 03:32:12;;;;;;;1.42;0.90;;;;;;;8.75;100.00;92887.00;2090232;28;20025;-83
2022/05/25 03:33:14;;;;;;;1.65;0.85;;;;;;;8.70;100.00;92886.75;2098494;28;20074;-83
2022/05/25 03:34:15;;;;;;;3.83;1.17;;;;;;;8.62;100.00;92882.69;2094675;28;20044;-83
2022/05/25 03:35:16;;;;;;;2.97;1.02;;;;;;;8.56;100.00;92885.09;2098539;28;20121;-83
2022/05/25 03:36:17;;;;;;;2.38;1.02;;;;;;;8.57;100.00;92884.66;2098534;28;20542;-83
2022/05/25 03:37:18;;;;;;;1.20;0.82;;;;;;;8.58;100.00;92886.16;2115120;28;20020;-83
2022/05/25 03:38:19;;;;;;;1.98;1.10;;;;;;;8.67;100.00;92890.22;2106749;28;20431;-83
2022/05/25 03:39:25;;;;;;;3.75;3.45;;;;;;;8.63;100.00;92884.19;2090318;28;20054;-83
2022/05/25 03:40:27;;;;;;;4.20;1.60;;;;;;;8.68;100.00;92886.38;2099897;28;20027;-83
2022/05/25 03:41:28;;;;;;;2.08;1.30;;;;;;;8.64;100.00;92885.69;2106600;28;20031;-83
2022/05/25 03:42:29;;;;;;;2.28;1.42;;;;;;;8.63;100.00;92892.94;2106946;28;20024;-83
2022/05/25 03:43:37;;;;;;;1.42;1.17;;;;;;;8.61;100.00;92897.19;2106870;28;20111;-83
2022/05/25 03:44:38;;;;;;;2.13;1.30;;;;;;;8.58;100.00;92899.50;2099339;28;20592;-83
2022/05/25 03:45:39;;;;;;;2.97;1.33;;;;;;;8.75;100.00;92902.25;2098270;28;20382;-83
2022/05/25 03:46:40;;;;;;;1.27;0.90;;;;;;;8.70;100.00;92900.81;2089987;28;20028;-83
2022/05/25 03:47:42;;;;;;;0.80;0.80;;;;;;;8.66;100.00;92902.03;2098369;28;20111;-83
2022/05/25 03:48:42;;;;;;;1.63;1.13;;;;;;;8.57;100.00;92899.91;2107053;28;20589;-83
2022/05/25 03:49:44;;;;;;;1.20;0.90;;;;;;;8.58;100.00;92901.41;2115104;28;20020;-83
2022/05/25 03:50:44;;;;;;;2.85;1.08;;;;;;;8.64;100.00;92904.34;2090006;28;20024;-84
2022/05/25 03:51:46;;;;;;;3.03;0.88;;;;;;;8.83;100.00;92896.38;2098474;28;20029;-83
2022/05/25 03:52:47;;;;;;;1.58;0.90;;;;;;;8.75;100.00;92900.34;2098369;28;20023;-83
2022/05/25 03:53:49;;;;;;;1.70;1.10;;;;;;;8.70;100.00;92900.06;2081794;28;20025;-83
2022/05/25 03:54:51;;;;;;;1.98;1.00;;;;;;;8.76;100.00;92898.41;2090526;28;20120;-83
2022/05/25 03:55:52;;;;;;;2.45;1.10;;;;;;;8.70;100.00;92905.41;2098154;28;20069;-83
2022/05/25 03:56:53;;;;;;;1.75;1.00;;;;;;;8.64;100.00;92899.75;2090002;28;20435;-83
2022/05/25 03:57:54;;;;;;;3.83;1.10;;;;;;;8.61;100.00;92910.50;2098213;28;20369;-83
2022/05/25 03:58:55;;;;;;;1.05;0.90;;;;;;;8.62;100.00;92909.34;2098269;28;20035;-83
2022/05/25 04:00:07;;;;;;;1.30;1.20;;;;;;;8.62;100.00;92914.66;2081869;28;20021;-83
2022/05/25 04:01:08;;;;;;;2.45;1.13;;;;;;;8.66;100.00;92915.38;2091482;28;20021;-83
2022/05/25 04:02:10;;;;;;;1.73;1.05;;;;;;;8.54;100.00;92909.47;2090622;28;20028;-83
2022/05/25 04:03:13;;;;;;;2.60;1.30;;;;;;;8.65;100.00;92914.63;2090274;28;20031;-83
2022/05/25 04:04:14;;;;;;;1.80;1.00;;;;;;;8.63;100.00;92921.50;2090808;28;20013;-83
2022/05/25 04:05:15;;;;;;;3.22;1.25;;;;;;;8.61;100.00;92908.59;2098292;28;20035;-84
2022/05/25 04:06:16;;;;;;;1.55;1.00;;;;;;;8.70;100.00;92922.13;2106305;28;20046;-84
2022/05/25 04:07:17;;;;;;;1.45;0.80;;;;;;;8.79;100.00;92917.00;2106687;28;20024;-84
2022/05/25 04:08:18;;;;;;;3.00;1.00;;;;;;;8.85;100.00;92921.88;2106602;28;20020;-83
2022/05/25 04:09:19;;;;;;;0.90;0.80;;;;;;;8.81;100.00;92919.25;2098183;28;20025;-83
2022/05/25 04:10:21;;;;;;;3.58;1.00;;;;;;;8.69;100.00;92914.53;2098246;28;20020;-83
2022/05/25 04:11:22;;;;;;;2.33;0.90;;;;;;;8.61;100.00;92916.59;2089873;28;20028;-83
2022/05/25 04:12:23;;;;;;;1.33;1.13;;;;;;;8.55;100.00;92921.59;2090057;28;20078;-84
2022/05/25 04:13:25;;;;;;;0.77;0.77;;;;;;;8.52;100.00;92917.13;2089749;28;20087;-83
2022/05/25 04:14:26;;;;;;;1.55;0.93;;;;;;;8.53;100.00;92915.19;2090143;28;20534;-83
2022/05/25 04:15:30;;;;;;;1.98;0.93;;;;;;;8.52;100.00;92925.09;2089905;28;20409;-83
2022/05/25 04:16:31;;;;;;;3.15;0.98;;;;;;;8.55;100.00;92920.84;2082140;28;20033;-83
2022/05/25 04:17:33;;;;;;;2.63;1.27;;;;;;;8.46;100.00;92923.31;2081836;28;20029;-83
2022/05/25 04:18:34;;;;;;;1.83;0.90;;;;;;;8.43;100.00;92930.22;2081664;28;20040;-83
2022/05/25 04:19:38;;;;;;;1.23;0.90;;;;;;;8.47;100.00;92932.78;2101077;28;20066;-83
2022/05/25 04:20:45;;;;;;;1.20;0.98;;;;;;;8.52;100.00;92927.78;2106395;28;20016;-83
2022/05/25 04:21:46;;;;;;;1.55;1.17;;;;;;;8.51;100.00;92923.56;2091265;28;20112;-83
2022/05/25 04:22:47;;;;;;;2.38;1.42;;;;;;;8.39;100.00;92934.84;2089791;28;20496;-83
2022/05/25 04:23:48;;;;;;;4.22;1.05;;;;;;;8.44;100.00;92926.38;2090017;28;20091;-83
2022/05/25 04:24:49;;;;;;;5.18;1.35;;;;;;;8.41;100.00;92934.44;2098164;28;20024;-83
2022/05/25 04:25:50;;;;;;;0.80;0.70;;;;;;;8.38;100.00;92935.97;2106323;28;20073;-82
2022/05/25 04:26:51;;;;;;;1.65;1.10;;;;;;;8.37;100.00;92934.47;2104571;28;20138;-82
2022/05/25 04:27:55;;;;;;;0.80;0.80;;;;;;;8.46;100.00;92939.28;2101872;28;20035;-83
2022/05/25 04:28:57;;;;;;;3.38;0.98;;;;;;;8.50;100.00;92943.38;2094690;28;20027;-83
2022/05/25 04:29:58;;;;;;;1.92;1.17;;;;;;;8.52;100.00;92941.09;2079818;28;20017;-83
2022/05/25 04:30:59;;;;;;;3.78;1.00;;;;;;;8.55;100.00;92942.91;2088079;28;20058;-83
2022/05/25 04:32:00;;;;;;;2.13;0.90;;;;;;;8.52;100.00;92946.41;2095375;28;20653;-83
2022/05/25 04:33:01;;;;;;;2.20;1.20;;;;;;;8.49;100.00;92939.22;2095137;28;20028;-83
2022/05/25 04:34:03;;;;;;;1.55;1.05;;;;;;;8.45;100.00;92949.19;2096720;28;20182;-83
2022/05/25 04:35:04;;;;;;;1.90;0.95;;;;;;;8.42;100.00;92950.00;2105404;28;20555;-83
2022/05/25 04:36:05;;;;;;;3.05;1.00;;;;;;;8.42;100.00;92946.56;2113596;28;20118;-83
2022/05/25 04:38:25;;;;;;;2.88;1.02;;;;;;;8.31;100.00;92946.72;2101943;28;20063;-84
2022/05/25 04:39:26;;;;;;;1.58;1.00;;;;;;;8.38;100.00;92949.28;2096128;28;20047;-83
2022/05/25 04:40:30;;;;;;;6.90;1.10;;;;;;;8.33;100.00;92947.81;2088094;28;20025;-82
2022/05/25 04:41:35;;;;;;;2.05;1.00;;;;;;;8.45;100.00;92948.44;2088470;28;20566;-83
2022/05/25 04:42:36;;;;;;;4.40;1.05;;;;;;;8.48;100.00;92948.38;2089550;28;20028;-83
2022/05/25 04:43:37;;;;;;;1.33;0.70;;;;;;;8.48;100.00;92948.38;2087858;28;20029;-83
2022/05/25 04:44:38;;;;;;;2.88;1.15;;;;;;;8.53;100.00;92952.50;2096273;28;20032;-83
2022/05/25 04:45:42;;;;;;;1.20;1.10;;;;;;;8.71;100.00;92946.88;2096328;28;20900;-82
2022/05/25 04:46:43;;;;;;;1.25;0.95;;;;;;;8.78;100.00;92944.84;2088889;28;20039;-83
2022/05/25 04:47:44;;;;;;;1.20;0.98;;;;;;;8.86;100.00;92955.34;2092269;28;20095;-83
2022/05/25 04:48:45;;;;;;;1.77;1.10;;;;;;;8.89;100.00;92959.88;2105029;28;20028;-83
2022/05/25 04:49:45;;;;;;;2.72;1.10;;;;;;;8.97;100.00;92958.59;2104650;28;20073;-83
2022/05/25 04:50:47;;;;;;;4.10;1.10;;;;;;;8.94;100.00;92954.81;2104426;28;20757;-83
2022/05/25 04:51:49;;;;;;;1.83;0.90;;;;;;;8.86;100.00;92955.34;2088388;28;20147;-83
2022/05/25 04:52:51;;;;;;;3.92;1.13;;;;;;;8.88;100.00;92961.78;2080555;28;20028;-83
2022/05/25 04:53:52;;;;;;;1.48;1.00;;;;;;;8.86;100.00;92961.44;2100304;28;20050;-83
2022/05/25 04:54:53;;;;;;;3.08;1.10;;;;;;;8.98;100.00;92960.09;2097214;28;20073;-83
2022/05/25 04:57:20;;;;;;;3.78;1.13;;;;;;;9.13;100.00;92963.22;2099619;28;20094;-83
2022/05/25 04:58:22;;;;;;;1.98;0.93;;;;;;;9.14;100.00;92967.41;2097922;28;20782;-83
2022/05/25 04:59:23;;;;;;;3.13;1.13;;;;;;;9.06;100.00;92969.47;2093980;28;20564;-83
2022/05/25 05:00:25;;;;;;;1.58;1.05;;;;;;;9.08;100.00;92967.88;2088604;28;20028;-84
2022/05/25 05:01:26;;;;;;;2.45;1.05;;;;;;;9.05;100.00;92968.72;2080746;28;20029;-83
2022/05/25 05:02:29;;;;;;;1.23;1.10;;;;;;;9.06;100.00;92970.22;2102934;28;20028;-83
2022/05/25 05:03:30;;;;;;;3.30;1.50;;;;;;;9.13;100.00;92969.34;2105064;28;20110;-83
2022/05/25 05:04:31;;;;;;;1.55;1.17;;;;;;;9.10;100.00;92970.16;2089111;28;20104;-84
2022/05/25 05:05:32;;;;;;;3.47;1.05;;;;;;;9.07;100.00;92976.28;2096926;28;20024;-81
2022/05/25 05:06:33;;;;;;;1.23;0.82;;;;;;;9.29;100.00;92980.06;2104631;28;20671;-86
2022/05/25 05:07:35;;;;;;;3.35;1.42;;;;;;;9.33;100.00;92982.66;2096971;28;20032;-84
2022/05/25 05:08:36;;;;;;;2.45;1.15;;;;;;;9.35;100.00;92980.34;2097415;28;20021;-84
2022/05/25 05:09:41;;;;;;;3.88;1.30;;;;;;;9.41;100.00;92975.28;2105251;28;20469;-83
2022/05/25 05:10:42;;;;;;;2.15;1.30;;;;;;;9.45;100.00;92974.06;2104737;28;20456;-83
2022/05/25 05:11:44;;;;;;;1.50;0.82;;;;;;;9.43;100.00;92978.28;2106465;28;20031;-83
2022/05/25 05:12:45;;;;;;;1.70;1.10;;;;;;;9.43;100.00;92976.38;2088300;28;20140;-83
2022/05/25 05:13:47;;;;;;;3.38;1.20;;;;;;;9.50;100.00;92984.25;2096598;28;20036;-82
2022/05/25 05:14:49;;;;;;;1.35;0.98;;;;;;;9.43;100.00;92978.28;2096438;28;20028;-84
2022/05/25 05:15:52;;;;;;;4.45;1.10;;;;;;;9.69;100.00;92979.28;2096844;28;20049;-82